Shagang Hongfa — 9V9138 — position and weather

sailwx.info

Track history (hours):
 
Tides and Currents Weather Stations Pressure Air Temp Water Temp Dewpoint Dewpoint Depression Visibility Wind Speed Wind Dir Waves Ship Positions

Shagang Hongfa

Last reported at 2014-Sep-25 21:33 UTC. Time now 2014-Oct-24 07:07 UTC.
Position N 01°17' E 103°21'.
Warning: this ship's position is 28 days out of date.

Length 292 m; draft 10.8 m.

Type: Cargo ship. MMSI: 566178000.

Date/timePositionNaut miles runAvg speedWind from/ knotsBaromVisibWave heightAir tempDewpointWater temp
2014-Sep-25 21:33N 01°17' E 103°21'1413.9
2014-Sep-25 20:33N 01°12' E 103°34'1111.4
2014-Sep-25 19:33N 01°08' E 103°45'1111.5
2014-Sep-25 18:33N 01°14' E 103°55'1010.1
2014-Sep-25 17:33N 01°18' E 104°04'0 0.0
2014-Sep-25 11:28N 01°18' E 104°04'0 0.0
2014-Sep-25 08:16N 01°18' E 104°04'0 0.1
2014-Sep-25 07:31N 01°18' E 104°04'0 0.0
2014-Sep-25 05:07N 01°18' E 104°04'0 0.1
2014-Sep-25 04:23N 01°18' E 104°04'3 3.2
2014-Sep-25 03:33N 01°18' E 104°07'2 2.0
2014-Sep-25 02:29N 01°17' E 104°09'3 3.2
2014-Sep-25 01:32N 01°17' E 104°12'3 2.5
2014-Sep-25 00:32N 01°18' E 104°14'  
2014-Sep-19 04:29N 22°29' E 119°57'1111.6
2014-Sep-19 03:32N 22°32' E 120°08'1010.5
2014-Sep-19 02:33N 22°33' E 120°20'1 0.9
2014-Sep-19 01:03N 22°32' E 120°21'0 0.0
2014-Sep-18 22:09N 22°32' E 120°21'0 0.0
2014-Sep-18 21:33N 22°32' E 120°21'0 0.0
2014-Sep-18 17:27N 22°32' E 120°21'0 0.0
2014-Sep-17 05:21N 22°32' E 120°21'  
Track history (hours):
 
Tides and Currents Weather Stations Pressure Air Temp Water Temp Dewpoint Dewpoint Depression Visibility Wind Speed Wind Dir Waves Ship Positions

Shagang Hongfa

Last reported at 2014-Sep-25 21:33 UTC. Time now 2014-Oct-24 07:07 UTC.
Position N 01°17' E 103°21'.
Warning: this ship's position is 28 days out of date.

Length 292 m; draft 10.8 m.

Type: Cargo ship. MMSI: 566178000.

Date/timePositionNaut miles runAvg speedWind from/ knotsBaromVisibWave heightAir tempDewpointWater temp
2014-Sep-25 21:33N 01°17' E 103°21'1413.9
2014-Sep-25 20:33N 01°12' E 103°34'1111.4
2014-Sep-25 19:33N 01°08' E 103°45'1111.5
2014-Sep-25 18:33N 01°14' E 103°55'1010.1
2014-Sep-25 17:33N 01°18' E 104°04'0 0.0
2014-Sep-25 11:28N 01°18' E 104°04'0 0.0
2014-Sep-25 08:16N 01°18' E 104°04'0 0.1
2014-Sep-25 07:31N 01°18' E 104°04'0 0.0
2014-Sep-25 05:07N 01°18' E 104°04'0 0.1
2014-Sep-25 04:23N 01°18' E 104°04'3 3.2
2014-Sep-25 03:33N 01°18' E 104°07'2 2.0
2014-Sep-25 02:29N 01°17' E 104°09'3 3.2
2014-Sep-25 01:32N 01°17' E 104°12'3 2.5
2014-Sep-25 00:32N 01°18' E 104°14'  
2014-Sep-19 04:29N 22°29' E 119°57'1111.6
2014-Sep-19 03:32N 22°32' E 120°08'1010.5
2014-Sep-19 02:33N 22°33' E 120°20'1 0.9
2014-Sep-19 01:03N 22°32' E 120°21'0 0.0
2014-Sep-18 22:09N 22°32' E 120°21'0 0.0
2014-Sep-18 21:33N 22°32' E 120°21'0 0.0
2014-Sep-18 17:27N 22°32' E 120°21'0 0.0
2014-Sep-17 05:21N 22°32' E 120°21'  

Dump ship's entire track history